Time;durP1;ratioP1;P1;durP2;ratioP2;P2;SDS_P1;SDS_P2;PMS_P1;PMS_P2;Temp;Humidity;BMP_temperature;BMP_pressure;BME280_temperature;BME280_humidity;BME280_pressure;Samples;Min_cycle;Max_cycle;Signal;HPM_P1;HPM_P2
2021/09/05 00:00:22;;;;;;;61.65;38.90;;;;;;;14.19;80.56;99859.75;5052707;28;20113;-71
2021/09/05 00:02:48;;;;;;;70.13;41.55;;;;;;;14.12;80.50;99846.03;5071233;28;20047;-71
2021/09/05 00:05:13;;;;;;;76.60;43.15;;;;;;;14.09;81.29;99845.38;5090566;28;20028;-71
2021/09/05 00:07:39;;;;;;;77.68;44.00;;;;;;;14.01;81.39;99855.63;5092126;28;20028;-73
2021/09/05 00:10:05;;;;;;;79.15;46.42;;;;;;;13.95;81.34;99859.47;5092215;28;20040;-72
2021/09/05 00:12:30;;;;;;;65.47;39.10;;;;;;;13.94;81.40;99855.13;5091252;28;20032;-72
2021/09/05 00:14:55;;;;;;;57.83;37.65;;;;;;;14.01;81.05;99845.03;5091825;28;20036;-72
2021/09/05 00:17:21;;;;;;;64.65;41.05;;;;;;;14.03;80.68;99843.09;5092433;28;20036;-72
2021/09/05 00:19:46;;;;;;;61.15;37.50;;;;;;;14.02;80.96;99849.34;5092211;28;20036;-72
2021/09/05 00:22:11;;;;;;;69.85;38.90;;;;;;;14.03;81.03;99849.28;5091638;28;20051;-72
2021/09/05 00:24:37;;;;;;;74.43;40.00;;;;;;;14.05;81.05;99859.75;5091978;28;20032;-72
2021/09/05 00:27:03;;;;;;;63.67;40.10;;;;;;;14.04;81.06;99850.13;5091743;27;20032;-72
2021/09/05 00:29:28;;;;;;;69.78;39.42;;;;;;;14.01;80.91;99858.28;5091686;28;20032;-72
2021/09/05 00:31:53;;;;;;;65.50;38.58;;;;;;;13.98;81.17;99847.84;5089303;28;20040;-72
2021/09/05 00:34:19;;;;;;;66.45;37.17;;;;;;;13.98;80.89;99851.38;5091455;28;20092;-72
2021/09/05 00:36:44;;;;;;;61.47;36.13;;;;;;;14.01;80.68;99855.63;5091533;28;20508;-72
2021/09/05 00:39:10;;;;;;;55.20;33.83;;;;;;;14.03;80.37;99848.41;5091051;28;20043;-70
2021/09/05 00:41:35;;;;;;;67.45;39.50;;;;;;;14.05;80.46;99846.50;5090566;28;20126;-70
2021/09/05 00:44:01;;;;;;;50.25;33.22;;;;;;;14.05;80.30;99835.91;5090950;28;20121;-71
2021/09/05 00:46:28;;;;;;;56.00;36.17;;;;;;;14.02;80.60;99836.94;5091200;28;20043;-70
2021/09/05 00:48:53;;;;;;;55.90;35.88;;;;;;;14.01;80.64;99842.38;5091512;28;20121;-71
2021/09/05 00:51:21;;;;;;;70.30;41.33;;;;;;;13.98;80.58;99851.38;5089598;28;20114;-71
2021/09/05 00:53:46;;;;;;;72.18;38.50;;;;;;;13.88;81.32;99845.78;5093474;28;20494;-71
2021/09/05 00:56:12;;;;;;;56.25;36.75;;;;;;;13.85;81.44;99853.06;5091769;28;20040;-71
2021/09/05 00:58:38;;;;;;;64.95;39.72;;;;;;;13.81;80.98;99852.41;5091031;28;20043;-71
2021/09/05 01:01:04;;;;;;;57.40;33.15;;;;;;;13.83;81.43;99852.28;5066148;28;20058;-71
2021/09/05 01:03:29;;;;;;;59.75;36.92;;;;;;;13.90;81.44;99848.31;5081139;28;20043;-71
2021/09/05 01:05:55;;;;;;;70.00;39.83;;;;;;;13.90;81.00;99840.38;5087730;28;20043;-70
2021/09/05 01:08:21;;;;;;;51.33;31.90;;;;;;;13.90;81.71;99846.50;5090836;28;20106;-71
2021/09/05 01:10:46;;;;;;;52.92;33.03;;;;;;;13.94;81.23;99848.03;5091008;28;20126;-72
2021/09/05 01:13:11;;;;;;;57.22;33.90;;;;;;;13.98;80.90;99848.72;5088418;28;20038;-73
2021/09/05 01:15:37;;;;;;;51.15;32.95;;;;;;;14.02;80.96;99841.41;5090591;28;20047;-73
2021/09/05 01:18:02;;;;;;;48.33;32.33;;;;;;;14.03;81.05;99838.66;5091145;27;20111;-72
2021/09/05 01:20:27;;;;;;;58.75;32.17;;;;;;;14.06;80.70;99842.94;5090292;28;20028;-71
2021/09/05 01:22:53;;;;;;;54.90;33.60;;;;;;;14.06;81.10;99840.28;5089485;28;20043;-72
2021/09/05 01:25:18;;;;;;;53.05;34.95;;;;;;;14.03;81.36;99840.44;5090477;28;20028;-72
2021/09/05 01:27:44;;;;;;;58.67;36.10;;;;;;;13.99;81.60;99842.44;5090160;28;20039;-71
2021/09/05 01:30:10;;;;;;;57.72;36.13;;;;;;;14.00;81.51;99835.34;5090464;28;20031;-72
2021/09/05 01:32:35;;;;;;;66.47;36.97;;;;;;;14.01;81.50;99839.72;5089745;28;20031;-72
2021/09/05 01:35:02;;;;;;;69.95;38.08;;;;;;;14.01;81.78;99835.25;5090085;28;20824;-72
2021/09/05 01:37:27;;;;;;;54.97;32.88;;;;;;;14.01;81.94;99842.38;5089362;28;20038;-71
2021/09/05 01:39:53;;;;;;;59.08;34.45;;;;;;;14.05;81.90;99841.19;5089530;28;20040;-72
2021/09/05 01:42:18;;;;;;;59.22;34.83;;;;;;;14.10;81.48;99842.66;5089228;28;20489;-71
2021/09/05 01:44:43;;;;;;;60.35;34.13;;;;;;;14.10;81.05;99840.00;5089893;28;20043;-71
2021/09/05 01:47:09;;;;;;;57.90;34.40;;;;;;;14.06;81.14;99840.28;5090581;27;20028;-72
2021/09/05 01:49:34;;;;;;;53.83;32.45;;;;;;;14.04;81.58;99840.34;5090178;28;20040;-71
2021/09/05 01:51:59;;;;;;;57.83;35.92;;;;;;;14.03;81.72;99849.28;5089065;28;20032;-71
2021/09/05 01:54:25;;;;;;;60.90;34.10;;;;;;;14.01;82.07;99845.84;5089593;28;20032;-71
2021/09/05 01:56:50;;;;;;;54.67;32.70;;;;;;;14.03;82.02;99851.94;5088390;28;20064;-71
2021/09/05 01:59:15;;;;;;;53.92;32.33;;;;;;;14.06;81.92;99846.41;5088385;28;20035;-71
2021/09/05 02:01:41;;;;;;;60.88;35.63;;;;;;;14.04;81.82;99852.78;5088599;28;20043;-69
2021/09/05 02:04:06;;;;;;;55.58;32.30;;;;;;;14.06;81.67;99853.53;5089604;28;20047;-70
2021/09/05 02:06:32;;;;;;;55.08;33.92;;;;;;;14.09;81.56;99854.19;5089874;28;20059;-71
2021/09/05 02:08:58;;;;;;;57.95;35.22;;;;;;;14.09;81.76;99848.03;5089573;28;20397;-72
2021/09/05 02:11:24;;;;;;;60.45;36.10;;;;;;;14.06;81.61;99848.22;5088046;28;20075;-70
2021/09/05 02:13:50;;;;;;;55.67;33.50;;;;;;;14.05;82.05;99857.09;5088118;28;20032;-71
2021/09/05 02:16:16;;;;;;;65.30;33.40;;;;;;;14.06;81.82;99853.53;5089209;28;20032;-71
2021/09/05 02:18:42;;;;;;;46.45;30.42;;;;;;;14.07;81.90;99856.06;5089012;28;20081;-69
2021/09/05 02:21:07;;;;;;;56.97;35.20;;;;;;;14.08;81.63;99857.78;5088537;28;20040;-71
2021/09/05 02:23:32;;;;;;;61.67;36.55;;;;;;;14.08;81.90;99870.19;5089679;28;20119;-71
2021/09/05 02:25:58;;;;;;;56.92;35.63;;;;;;;14.09;81.94;99869.22;5087615;28;20096;-72
2021/09/05 02:28:23;;;;;;;53.97;31.08;;;;;;;14.10;82.08;99873.56;5089214;28;20039;-71
2021/09/05 02:30:49;;;;;;;48.22;29.85;;;;;;;14.13;81.82;99874.25;5089822;28;20039;-70
2021/09/05 02:33:14;;;;;;;58.65;33.92;;;;;;;14.13;81.73;99873.41;5088379;28;20562;-70
2021/09/05 02:35:39;;;;;;;59.60;34.22;;;;;;;14.07;81.26;99874.63;5089089;28;20036;-70
2021/09/05 02:38:05;;;;;;;50.83;31.90;;;;;;;14.04;81.45;99874.81;5089615;28;20032;-70
2021/09/05 02:40:30;;;;;;;53.83;34.67;;;;;;;14.02;81.89;99870.56;5087737;28;20504;-71
2021/09/05 02:42:56;;;;;;;49.60;28.55;;;;;;;14.05;81.86;99881.81;5088032;28;21501;-70
2021/09/05 02:45:21;;;;;;;47.70;29.60;;;;;;;14.08;81.43;99870.19;5088985;28;20120;-70
2021/09/05 02:47:47;;;;;;;52.80;33.15;;;;;;;14.05;81.29;99878.31;5088834;28;20162;-70
2021/09/05 02:50:12;;;;;;;56.75;32.45;;;;;;;14.01;81.93;99874.19;5089017;28;20039;-70
2021/09/05 02:52:37;;;;;;;55.47;32.22;;;;;;;13.95;81.99;99870.97;5087832;28;20028;-71
2021/09/05 02:55:03;;;;;;;57.70;33.58;;;;;;;13.95;82.12;99870.09;5089423;28;20115;-71
2021/09/05 02:57:28;;;;;;;51.20;31.00;;;;;;;13.98;82.01;99869.91;5088709;28;20501;-71
2021/09/05 02:59:54;;;;;;;52.25;30.02;;;;;;;13.93;82.12;99872.84;5087283;28;20063;-70
2021/09/05 03:02:19;;;;;;;61.88;34.60;;;;;;;13.88;82.05;99868.75;5086624;28;20101;-70
2021/09/05 03:04:44;;;;;;;51.67;31.85;;;;;;;13.85;82.09;99868.94;5088753;28;20044;-70
2021/09/05 03:07:10;;;;;;;64.53;32.65;;;;;;;13.83;82.39;99877.00;5088958;28;20493;-70
2021/09/05 03:09:35;;;;;;;51.92;33.25;;;;;;;13.81;82.02;99870.94;5089357;28;20048;-70
2021/09/05 03:12:01;;;;;;;53.83;32.88;;;;;;;13.79;82.37;99878.13;5088131;28;20495;-70
2021/09/05 03:14:26;;;;;;;47.67;30.45;;;;;;;13.75;82.16;99869.50;5088630;28;20039;-70
2021/09/05 03:16:51;;;;;;;48.35;30.00;;;;;;;13.75;82.24;99874.81;5088358;28;20453;-71
2021/09/05 03:19:17;;;;;;;43.63;27.95;;;;;;;13.74;82.58;99873.13;5088689;28;20118;-70
2021/09/05 03:21:42;;;;;;;47.22;29.73;;;;;;;13.81;82.62;99875.38;5087886;28;20443;-70
2021/09/05 03:24:08;;;;;;;68.90;35.17;;;;;;;13.74;82.55;99877.56;5091513;28;20034;-70
2021/09/05 03:26:34;;;;;;;59.92;32.80;;;;;;;13.68;82.47;99875.28;5093195;28;20044;-71
2021/09/05 03:29:00;;;;;;;53.83;30.42;;;;;;;13.61;82.90;99877.47;5092882;28;20366;-71
2021/09/05 03:31:25;;;;;;;62.70;32.75;;;;;;;13.59;82.53;99873.22;5092191;28;20032;-70
2021/09/05 03:33:51;;;;;;;65.93;33.25;;;;;;;13.57;82.82;99881.22;5092033;28;20036;-70
2021/09/05 03:36:16;;;;;;;56.13;33.30;;;;;;;13.55;83.07;99879.63;5092261;28;20105;-69
2021/09/05 03:38:42;;;;;;;57.30;33.50;;;;;;;13.53;83.07;99871.75;5092272;28;20111;-69
2021/09/05 03:41:07;;;;;;;56.83;32.45;;;;;;;13.52;82.64;99878.00;5091924;28;20051;-69
2021/09/05 03:43:33;;;;;;;70.30;31.55;;;;;;;13.49;82.86;99878.19;5092689;28;20455;-71
2021/09/05 03:45:58;;;;;;;56.47;31.05;;;;;;;13.50;82.77;99879.91;5092391;28;20448;-69
2021/09/05 03:48:23;;;;;;;54.47;32.58;;;;;;;13.48;82.70;99879.97;5092167;28;20123;-69
2021/09/05 03:50:49;;;;;;;52.22;31.38;;;;;;;13.45;83.31;99880.16;5091679;28;20028;-70
2021/09/05 03:53:14;;;;;;;57.58;32.40;;;;;;;13.41;82.73;99878.63;5091509;28;20072;-70
2021/09/05 03:55:39;;;;;;;59.30;33.28;;;;;;;13.40;82.84;99876.94;5091982;28;20089;-70
2021/09/05 03:58:07;;;;;;;47.50;31.20;;;;;;;13.38;83.23;99870.03;5092721;28;20039;-70
2021/09/05 04:00:33;;;;;;;51.60;28.73;;;;;;;13.37;83.25;99876.28;5091788;28;20109;-69
2021/09/05 04:02:58;;;;;;;45.35;29.05;;;;;;;13.39;83.00;99882.31;5089897;28;20114;-69
2021/09/05 04:05:24;;;;;;;56.05;31.95;;;;;;;13.37;83.39;99885.06;5092043;28;20504;-70
2021/09/05 04:10:27;;;;;;;58.63;31.27;;;;;;;13.34;82.97;99879.97;5091705;28;20054;-69
2021/09/05 04:12:53;;;;;;;55.80;31.88;;;;;;;13.35;82.55;99875.50;5091119;28;20410;-70
2021/09/05 04:15:18;;;;;;;51.50;29.23;;;;;;;13.34;82.76;99876.44;5091414;28;20029;-68
2021/09/05 04:17:44;;;;;;;55.75;32.70;;;;;;;13.32;82.77;99884.50;5089771;28;20040;-72
2021/09/05 04:20:10;;;;;;;53.92;31.27;;;;;;;13.29;82.62;99882.00;5092088;28;20036;-70
2021/09/05 04:22:35;;;;;;;53.80;31.17;;;;;;;13.31;82.92;99880.13;5092772;28;20039;-70
2021/09/05 04:25:01;;;;;;;54.47;32.08;;;;;;;13.30;82.45;99881.94;5093170;28;20044;-69
2021/09/05 04:27:26;;;;;;;61.13;36.25;;;;;;;13.27;82.53;99881.28;5091515;28;20047;-70
2021/09/05 04:29:52;;;;;;;55.22;30.80;;;;;;;13.26;82.77;99871.56;5091493;28;20081;-70
2021/09/05 04:32:20;;;;;;;55.20;32.45;;;;;;;13.21;82.74;99878.94;5090947;28;20036;-69
2021/09/05 04:34:45;;;;;;;45.95;28.35;;;;;;;13.21;82.60;99885.06;5090507;28;20521;-69
2021/09/05 04:37:10;;;;;;;45.58;28.30;;;;;;;13.23;82.53;99882.34;5091352;28;20055;-71
2021/09/05 04:39:36;;;;;;;50.50;30.48;;;;;;;13.22;82.54;99889.44;5091694;28;20032;-71
2021/09/05 04:42:01;;;;;;;50.47;29.08;;;;;;;13.17;82.25;99888.88;5089141;28;20028;-71
2021/09/05 04:44:26;;;;;;;43.20;28.27;;;;;;;13.17;82.28;99891.50;5091003;28;20519;-71
2021/09/05 04:46:52;;;;;;;37.70;24.33;;;;;;;13.20;82.25;99893.97;5089756;28;20459;-72
2021/09/05 04:49:17;;;;;;;54.05;31.40;;;;;;;13.21;81.81;99900.13;5090688;28;20028;-71
2021/09/05 04:51:43;;;;;;;54.08;30.20;;;;;;;13.13;82.20;99903.22;5090149;28;20032;-71
2021/09/05 04:54:08;;;;;;;53.55;30.48;;;;;;;13.03;82.94;99900.25;5091057;28;20040;-71
2021/09/05 04:56:33;;;;;;;54.95;31.90;;;;;;;12.98;82.71;99904.09;5091555;28;20036;-72
2021/09/05 04:58:59;;;;;;;62.45;33.47;;;;;;;12.96;83.20;99911.28;5089447;28;20024;-71
2021/09/05 05:01:24;;;;;;;67.35;33.05;;;;;;;12.91;82.85;99908.88;5090912;28;20044;-71
2021/09/05 05:03:49;;;;;;;58.25;31.50;;;;;;;12.89;83.30;99910.75;5091205;28;20036;-71
2021/09/05 05:06:15;;;;;;;52.65;31.00;;;;;;;12.92;83.13;99902.66;5090753;28;20035;-71
2021/09/05 05:08:40;;;;;;;59.65;31.05;;;;;;;12.92;82.89;99915.03;5091183;28;20119;-72
2021/09/05 05:11:05;;;;;;;50.85;29.95;;;;;;;12.86;82.96;99919.72;5090921;28;20060;-71
2021/09/05 05:13:31;;;;;;;52.55;29.73;;;;;;;12.83;83.02;99916.41;5090245;28;20040;-71
2021/09/05 05:15:56;;;;;;;52.20;29.13;;;;;;;12.83;82.43;99916.41;5090000;28;20059;-72
2021/09/05 05:18:22;;;;;;;49.63;28.38;;;;;;;12.81;82.86;99921.78;5090450;28;20102;-71
2021/09/05 05:20:48;;;;;;;50.42;29.50;;;;;;;12.80;83.05;99925.38;5090378;28;20040;-71
2021/09/05 05:23:13;;;;;;;51.67;29.77;;;;;;;12.80;82.89;99922.72;5089675;28;20055;-72
2021/09/05 05:25:39;;;;;;;45.60;28.80;;;;;;;12.81;82.96;99924.41;5090280;28;20542;-73
2021/09/05 05:28:04;;;;;;;50.42;28.90;;;;;;;12.84;82.86;99918.09;5091028;28;20066;-71
2021/09/05 05:30:30;;;;;;;40.67;25.08;;;;;;;12.93;82.95;99919.38;5090208;28;20381;-72
2021/09/05 05:32:58;;;;;;;36.13;23.42;;;;;;;13.00;82.55;99923.41;5088978;28;20639;-71
2021/09/05 05:35:23;;;;;;;44.22;26.25;;;;;;;13.01;82.40;99925.94;5089780;28;20104;-71
2021/09/05 05:37:49;;;;;;;40.38;24.73;;;;;;;13.06;82.48;99925.66;5090451;28;20066;-71
2021/09/05 05:40:14;;;;;;;41.83;25.40;;;;;;;13.11;82.22;99927.09;5088917;28;20032;-71
2021/09/05 05:42:39;;;;;;;48.80;29.17;;;;;;;13.14;82.54;99922.59;5089237;28;20032;-70
2021/09/05 05:45:05;;;;;;;49.60;28.40;;;;;;;13.15;82.23;99922.50;5089930;28;20067;-71
2021/09/05 05:47:32;;;;;;;51.55;28.35;;;;;;;13.19;82.67;99924.06;5089724;28;20485;-70
2021/09/05 05:49:57;;;;;;;49.42;29.77;;;;;;;13.25;81.95;99922.84;5089885;28;20044;-70
2021/09/05 05:52:22;;;;;;;44.00;27.00;;;;;;;13.30;82.07;99923.44;5089475;28;20081;-70
2021/09/05 05:54:48;;;;;;;37.83;25.95;;;;;;;13.35;81.86;99923.19;5090005;28;20074;-71
2021/09/05 05:57:13;;;;;;;47.67;29.27;;;;;;;13.39;81.89;99919.38;5089667;28;20039;-71
2021/09/05 05:59:38;;;;;;;45.97;26.25;;;;;;;13.43;81.84;99921.78;5089555;28;20478;-71
2021/09/05 06:02:04;;;;;;;42.67;26.50;;;;;;;13.45;81.80;99921.69;5088237;28;20032;-69
2021/09/05 06:04:29;;;;;;;42.50;27.40;;;;;;;13.52;81.78;99920.38;5089637;28;20024;-72
2021/09/05 06:06:55;;;;;;;40.65;24.92;;;;;;;13.56;82.02;99919.28;5088494;28;20458;-69
2021/09/05 06:09:21;;;;;;;42.97;28.35;;;;;;;13.62;82.06;99920.69;5089380;28;20039;-70
2021/09/05 06:11:46;;;;;;;44.00;26.98;;;;;;;13.65;81.85;99916.06;5088867;28;20043;-72
2021/09/05 06:14:12;;;;;;;44.38;28.25;;;;;;;13.72;82.13;99927.16;5088030;28;20036;-71
2021/09/05 06:16:37;;;;;;;49.05;29.00;;;;;;;13.79;81.60;99919.69;5088095;28;20173;-70
2021/09/05 06:19:03;;;;;;;48.30;29.92;;;;;;;13.84;82.33;99923.75;5089310;28;20424;-70
2021/09/05 06:21:28;;;;;;;50.83;30.65;;;;;;;13.93;81.72;99930.28;5088506;28;20036;-70
2021/09/05 06:23:54;;;;;;;50.22;27.83;;;;;;;13.99;82.10;99921.97;5089462;28;20047;-70
2021/09/05 06:26:20;;;;;;;46.97;28.70;;;;;;;14.08;81.78;99920.56;5089431;28;20530;-70
2021/09/05 06:28:45;;;;;;;41.58;27.38;;;;;;;14.17;81.55;99922.63;5088943;28;20048;-71
2021/09/05 06:31:10;;;;;;;44.95;26.83;;;;;;;14.25;81.47;99927.44;5088446;28;20500;-71
2021/09/05 06:33:36;;;;;;;45.75;28.95;;;;;;;14.35;81.85;99926.81;5089435;28;20115;-70
2021/09/05 06:36:01;;;;;;;54.58;29.20;;;;;;;14.49;81.58;99933.03;5088748;28;20042;-70
2021/09/05 06:38:26;;;;;;;50.15;31.98;;;;;;;14.60;81.21;99935.91;5088521;28;20052;-71
2021/09/05 06:40:52;;;;;;;53.33;32.03;;;;;;;14.71;81.11;99937.84;5088819;28;20493;-73
2021/09/05 06:43:17;;;;;;;51.30;31.75;;;;;;;14.80;80.66;99938.13;5088567;28;20557;-70
2021/09/05 06:45:43;;;;;;;46.85;28.85;;;;;;;14.91;80.30;99932.09;5088782;28;20394;-70
2021/09/05 06:48:08;;;;;;;47.83;31.45;;;;;;;15.01;79.77;99938.53;5089580;28;20043;-71
2021/09/05 06:50:33;;;;;;;51.28;32.95;;;;;;;15.07;79.79;99942.59;5088748;28;20038;-70
2021/09/05 06:52:59;;;;;;;50.17;32.75;;;;;;;15.15;79.76;99937.63;5088065;28;20122;-71
2021/09/05 06:55:25;;;;;;;48.90;31.80;;;;;;;15.29;79.44;99947.34;5088720;28;20028;-71
2021/09/05 06:57:50;;;;;;;38.35;26.15;;;;;;;15.43;79.39;99946.41;5088151;28;20039;-71
2021/09/05 07:00:16;;;;;;;45.17;26.23;;;;;;;15.56;78.49;99947.31;5088671;28;20036;-71
2021/09/05 07:02:41;;;;;;;33.05;23.92;;;;;;;15.75;78.11;99944.31;5087954;28;20052;-71
2021/09/05 07:05:07;;;;;;;39.88;26.40;;;;;;;15.89;77.34;99943.34;5088944;28;20142;-71
2021/09/05 07:07:32;;;;;;;29.58;22.63;;;;;;;16.06;76.70;99951.00;5087243;28;20081;-71
2021/09/05 07:09:58;;;;;;;46.30;31.08;;;;;;;16.12;76.37;99955.06;5088700;28;20035;-72
2021/09/05 07:12:23;;;;;;;37.30;25.30;;;;;;;16.24;76.61;99948.88;5088132;28;20036;-71
2021/09/05 07:14:48;;;;;;;42.60;22.30;;;;;;;16.38;76.00;99952.38;5088881;28;20051;-71
2021/09/05 07:17:14;;;;;;;30.88;23.00;;;;;;;16.50;75.58;99955.00;5087296;28;20028;-71
2021/09/05 07:19:40;;;;;;;32.92;23.55;;;;;;;16.64;74.82;99958.50;5088539;28;20036;-71
2021/09/05 07:22:05;;;;;;;35.30;26.38;;;;;;;16.75;74.43;99953.25;5088300;28;20097;-69
2021/09/05 07:24:31;;;;;;;40.30;27.20;;;;;;;16.86;73.71;99956.03;5088525;28;20490;-71
2021/09/05 07:26:56;;;;;;;36.85;26.58;;;;;;;17.02;73.34;99957.56;5088575;28;20047;-70
2021/09/05 07:29:22;;;;;;;36.72;25.60;;;;;;;17.14;73.47;99968.16;5087400;28;20029;-71
2021/09/05 07:31:47;;;;;;;33.80;26.65;;;;;;;17.26;72.61;99968.22;5087979;28;20077;-71
2021/09/05 07:34:12;;;;;;;36.35;27.38;;;;;;;17.32;72.33;99973.94;5088398;28;20042;-72
2021/09/05 07:36:38;;;;;;;38.97;26.75;;;;;;;17.40;71.82;99970.72;5088133;28;20085;-71
2021/09/05 07:39:04;;;;;;;34.85;23.60;;;;;;;17.55;72.41;99974.06;5088192;28;20030;-71
2021/09/05 07:41:30;;;;;;;37.80;28.40;;;;;;;17.69;71.57;99970.31;5087271;28;20063;-71
2021/09/05 07:43:55;;;;;;;33.10;24.67;;;;;;;17.79;70.82;99974.88;5077298;28;20131;-71
2021/09/05 07:46:22;;;;;;;36.05;25.90;;;;;;;17.95;70.53;99977.22;5083692;28;20126;-71
2021/09/05 07:48:47;;;;;;;37.97;26.85;;;;;;;18.01;70.02;99979.41;5081620;28;20052;-71
2021/09/05 07:51:12;;;;;;;36.92;27.60;;;;;;;18.06;70.07;99981.72;5074198;28;20028;-71
2021/09/05 07:53:37;;;;;;;33.60;24.25;;;;;;;18.19;69.88;99987.81;5087876;28;20036;-71
2021/09/05 07:56:03;;;;;;;35.83;23.85;;;;;;;18.32;69.34;99977.03;5084667;28;20048;-71
2021/09/05 07:58:29;;;;;;;32.50;24.63;;;;;;;18.40;68.98;99977.28;5077774;28;20044;-71
2021/09/05 08:00:55;;;;;;;29.90;24.33;;;;;;;18.54;68.33;99980.69;5060838;28;20090;-71
2021/09/05 08:03:21;;;;;;;26.73;20.50;;;;;;;18.65;68.39;99989.50;5062251;28;20032;-71
2021/09/05 08:05:46;;;;;;;29.38;22.15;;;;;;;18.75;68.45;99986.13;5067663;28;20131;-71
2021/09/05 08:08:11;;;;;;;27.10;21.08;;;;;;;18.89;67.92;99985.91;5067884;28;20451;-71
2021/09/05 08:10:38;;;;;;;25.13;20.35;;;;;;;18.95;67.77;99981.88;5071818;28;20037;-70
2021/09/05 08:13:04;;;;;;;26.33;18.88;;;;;;;19.09;67.47;99986.94;5070994;28;20032;-71
2021/09/05 08:15:29;;;;;;;24.30;18.85;;;;;;;19.20;66.70;99986.94;5071772;28;20040;-71
2021/09/05 08:17:54;;;;;;;23.23;19.15;;;;;;;19.37;66.07;99987.34;5071247;28;20056;-71
2021/09/05 08:20:20;;;;;;;21.65;16.92;;;;;;;19.45;66.70;99995.59;5071411;28;20095;-70
2021/09/05 08:22:46;;;;;;;23.10;18.10;;;;;;;19.58;65.38;99998.94;5069161;28;20098;-71
2021/09/05 08:25:13;;;;;;;20.65;15.35;;;;;;;19.75;65.07;100002.06;5071072;28;20052;-71
2021/09/05 08:27:38;;;;;;;20.30;14.68;;;;;;;19.93;64.75;100004.00;5063073;28;20047;-72
2021/09/05 08:30:04;;;;;;;21.30;16.95;;;;;;;20.04;64.01;100007.63;5078391;28;20032;-71
2021/09/05 08:32:29;;;;;;;21.58;16.98;;;;;;;20.19;63.21;100006.31;5084972;28;20040;-71
2021/09/05 08:34:55;;;;;;;19.10;15.80;;;;;;;20.34;63.11;99996.09;5085927;28;20044;-71
2021/09/05 08:37:20;;;;;;;18.00;14.70;;;;;;;20.49;62.70;100012.66;5084707;28;20039;-71
2021/09/05 08:39:46;;;;;;;18.17;14.60;;;;;;;20.59;62.62;100014.44;5085457;28;20036;-69
2021/09/05 08:42:11;;;;;;;18.75;14.88;;;;;;;20.68;62.62;100020.00;5081801;28;20460;-72
2021/09/05 08:44:36;;;;;;;17.05;12.63;;;;;;;20.83;62.50;100025.81;5085792;28;20047;-71
2021/09/05 08:47:02;;;;;;;18.33;15.27;;;;;;;20.93;62.15;100015.97;5085356;28;20036;-72
2021/09/05 08:49:35;;;;;;;22.25;14.32;;;;;;;21.08;61.18;100028.00;5085025;28;20118;-71
2021/09/05 08:52:00;;;;;;;16.67;14.02;;;;;;;21.11;60.58;100027.72;5084209;28;20486;-71
2021/09/05 08:54:25;;;;;;;16.80;12.77;;;;;;;21.18;60.06;100031.56;5057686;28;20032;-72
2021/09/05 08:56:53;;;;;;;16.23;12.15;;;;;;;21.26;60.99;100033.53;5045427;28;20451;-70
2021/09/05 08:59:19;;;;;;;16.88;14.55;;;;;;;21.31;61.13;100031.28;5061271;28;20047;-71
2021/09/05 09:01:56;;;;;;;16.88;13.13;;;;;;;21.42;60.64;100025.84;5064482;28;20115;-72
2021/09/05 09:04:21;;;;;;;20.33;14.40;;;;;;;21.61;59.81;100029.56;5083549;28;20032;-72
2021/09/05 09:06:48;;;;;;;16.00;12.52;;;;;;;21.81;59.66;100025.03;5085568;28;20054;-72
2021/09/05 09:09:13;;;;;;;16.83;13.95;;;;;;;21.91;58.80;100025.03;5085016;28;20091;-71
2021/09/05 09:12:05;;;;;;;16.33;11.75;;;;;;;22.08;58.04;100022.47;5081525;28;20128;-71
2021/09/05 09:14:42;;;;;;;16.13;13.65;;;;;;;22.30;57.58;100023.16;5080882;28;20056;-71
2021/09/05 09:17:09;;;;;;;21.88;15.02;;;;;;;22.34;56.82;100021.84;5085400;28;20040;-72
2021/09/05 09:19:36;;;;;;;16.85;12.55;;;;;;;22.56;56.28;100027.88;5078668;28;20115;-72
2021/09/05 09:22:04;;;;;;;17.25;14.82;;;;;;;22.92;55.41;100024.31;5051437;28;20044;-71
2021/09/05 09:24:41;;;;;;;15.57;13.00;;;;;;;23.73;53.57;100023.56;5064632;28;20513;-73
2021/09/05 09:27:06;;;;;;;15.77;12.95;;;;;;;24.30;51.83;100016.94;5083736;28;20066;-72
2021/09/05 09:29:34;;;;;;;14.43;12.90;;;;;;;24.86;49.80;100020.97;5063379;28;20158;-72
2021/09/05 09:32:16;;;;;;;19.13;13.20;;;;;;;25.88;47.42;100017.19;5063632;28;20052;-72
2021/09/05 09:34:46;;;;;;;14.20;12.43;;;;;;;26.52;44.97;100019.13;5067766;28;20083;-72
2021/09/05 09:37:20;;;;;;;18.48;12.77;;;;;;;27.33;43.37;100015.28;5064079;28;20466;-72
2021/09/05 09:39:54;;;;;;;16.57;12.93;;;;;;;28.21;41.41;100016.66;5064152;28;20128;-71
2021/09/05 09:42:36;;;;;;;;;;;;;;;28.86;40.12;100020.53;5062515;28;20279;-71
2021/09/05 09:45:12;;;;;;;15.80;12.15;;;;;;;29.20;38.92;100013.69;5064353;28;20026;-71
2021/09/05 09:47:49;;;;;;;13.45;12.05;;;;;;;29.90;38.16;100016.69;5068329;28;20096;-72
2021/09/05 09:50:16;;;;;;;10.65;9.00;;;;;;;30.59;38.17;100016.84;5052759;28;20036;-71
2021/09/05 09:52:43;;;;;;;12.90;10.40;;;;;;;31.10;36.51;100006.63;5054287;28;20093;-72
2021/09/05 09:55:10;;;;;;;13.40;12.00;;;;;;;30.96;35.76;100013.88;5064008;28;20531;-71
2021/09/05 09:57:36;;;;;;;11.77;9.70;;;;;;;31.35;35.17;100013.19;5062530;28;20048;-70
2021/09/05 10:00:03;;;;;;;11.65;10.45;;;;;;;31.48;34.72;100014.28;5063355;28;20087;-70
2021/09/05 10:02:29;;;;;;;13.32;10.98;;;;;;;31.85;34.46;100012.91;5063043;28;20043;-70
2021/09/05 10:04:57;;;;;;;11.95;10.25;;;;;;;32.18;33.76;100015.63;5064136;28;20699;-70
2021/09/05 10:07:23;;;;;;;13.55;11.90;;;;;;;32.47;33.06;100005.31;5063873;28;20047;-71
2021/09/05 10:09:50;;;;;;;11.02;10.00;;;;;;;32.55;32.84;100007.00;5063665;28;20044;-71
2021/09/05 10:12:17;;;;;;;12.98;10.82;;;;;;;32.83;32.54;100004.78;5063366;28;20458;-72
2021/09/05 10:14:48;;;;;;;14.77;12.43;;;;;;;32.57;32.39;100003.00;5061760;28;20040;-70
2021/09/05 10:17:13;;;;;;;12.80;11.48;;;;;;;32.72;32.30;100003.59;5063487;28;20578;-70
2021/09/05 10:19:39;;;;;;;13.75;11.63;;;;;;;32.82;32.51;100007.75;5063813;28;20033;-71
2021/09/05 10:22:05;;;;;;;13.35;10.25;;;;;;;32.97;32.93;100008.31;5062420;28;20733;-70
2021/09/05 10:24:47;;;;;;;11.57;10.38;;;;;;;33.28;31.78;100004.03;5062880;28;20112;-71
2021/09/05 10:27:14;;;;;;;12.27;10.00;;;;;;;33.41;31.12;100009.41;5062684;28;20041;-72
2021/09/05 10:30:05;;;;;;;19.33;13.57;;;;;;;33.64;30.93;100003.38;5063360;28;20040;-77
2021/09/05 10:32:52;;;;;;;15.60;13.90;;;;;;;32.64;31.61;100003.00;5061547;28;20163;-71
2021/09/05 10:35:28;;;;;;;12.82;11.48;;;;;;;32.60;32.08;100002.56;5082184;28;20043;-72
2021/09/05 10:38:09;;;;;;;15.82;13.73;;;;;;;32.71;32.26;100001.91;5083857;28;20039;-71
2021/09/05 10:40:58;;;;;;;14.32;12.80;;;;;;;32.41;31.83;99993.34;5083315;28;20523;-70
2021/09/05 10:43:44;;;;;;;12.27;11.07;;;;;;;31.50;32.46;99993.97;5083209;28;20063;-72
2021/09/05 10:46:09;;;;;;;14.20;12.73;;;;;;;30.59;35.22;100000.50;5081888;28;20058;-71
2021/09/05 10:48:45;;;;;;;13.30;11.90;;;;;;;30.36;35.72;99989.88;5083342;28;20060;-72
2021/09/05 10:51:18;;;;;;;15.82;11.48;;;;;;;30.05;35.97;99998.44;5083893;28;20404;-71
2021/09/05 10:53:55;;;;;;;12.15;9.88;;;;;;;29.70;36.11;100002.94;5069308;28;20513;-72
2021/09/05 10:56:45;;;;;;;12.70;10.57;;;;;;;29.28;36.92;99997.25;5073705;28;20105;-71
2021/09/05 10:59:16;;;;;;;13.52;11.75;;;;;;;28.69;38.35;99991.91;5071366;28;20047;-72
2021/09/05 11:01:48;;;;;;;12.95;11.35;;;;;;;28.07;38.94;99997.66;5059726;28;20039;-72
2021/09/05 11:04:14;;;;;;;13.90;12.38;;;;;;;27.67;39.82;99994.25;5082323;28;20059;-72
2021/09/05 11:06:45;;;;;;;12.35;10.45;;;;;;;27.33;39.94;99995.50;5084123;27;20074;-72
2021/09/05 11:09:23;;;;;;;13.43;11.98;;;;;;;27.30;40.63;99991.28;5077881;28;20415;-72
2021/09/05 11:11:53;;;;;;;17.50;10.73;;;;;;;27.27;41.24;99985.38;5061051;28;20033;-71
2021/09/05 11:17:07;;;;;;;12.98;11.25;;;;;;;26.99;41.68;99988.53;5041350;28;20036;-73
2021/09/05 11:19:39;;;;;;;10.48;7.57;;;;;;;27.09;41.34;99991.03;5057687;28;20036;-72